createdAt,value
2022-11-27T00:01:30.858Z,6.30
2022-11-27T00:03:57.689Z,5.93
2022-11-27T00:06:27.588Z,5.65
2022-11-27T00:08:57.181Z,4.80
2022-11-27T00:11:25.486Z,4.82
2022-11-27T00:13:52.540Z,5.65
2022-11-27T00:16:21.230Z,4.63
2022-11-27T00:18:48.901Z,5.03
2022-11-27T00:21:24.402Z,4.90
2022-11-27T00:23:52.945Z,5.60
2022-11-27T00:26:20.063Z,6.40
2022-11-27T00:28:46.741Z,5.28
2022-11-27T00:31:19.248Z,5.75
2022-11-27T00:33:46.168Z,5.68
2022-11-27T00:36:16.277Z,6.25
2022-11-27T00:38:43.064Z,6.30
2022-11-27T00:41:16.182Z,5.90
2022-11-27T00:43:45.291Z,6.30
2022-11-27T00:46:16.900Z,6.60
2022-11-27T00:48:44.564Z,6.40
2022-11-27T00:51:14.767Z,6.65
2022-11-27T00:53:41.879Z,6.88
2022-11-27T00:56:09.971Z,6.00
2022-11-27T00:58:36.665Z,6.15
2022-11-27T01:01:06.209Z,6.30
2022-11-27T01:03:35.431Z,6.45
2022-11-27T01:06:04.501Z,6.30
2022-11-27T01:08:31.510Z,6.10
2022-11-27T01:10:58.864Z,6.78
2022-11-27T01:13:35.180Z,6.30
2022-11-27T01:16:07.591Z,6.63
2022-11-27T01:18:36.186Z,6.30
2022-11-27T01:21:03.808Z,7.22
2022-11-27T01:23:31.296Z,7.32
2022-11-27T01:26:01.089Z,7.93
2022-11-27T01:28:27.788Z,6.40
2022-11-27T01:30:55.292Z,5.10
2022-11-27T01:33:22.468Z,5.95
2022-11-27T01:36:00.818Z,6.10
2022-11-27T01:38:29.039Z,6.20
2022-11-27T01:41:00.866Z,6.10
2022-11-27T01:43:39.697Z,6.60
2022-11-27T01:46:35.446Z,6.30
2022-11-27T01:49:11.002Z,7.07
2022-11-27T01:51:41.843Z,6.25
2022-11-27T01:54:10.382Z,5.68
2022-11-27T01:56:39.489Z,5.55
2022-11-27T01:59:07.320Z,5.32
2022-11-27T02:01:34.035Z,6.00
2022-11-27T02:04:02.269Z,5.95
2022-11-27T02:06:29.122Z,5.97
2022-11-27T02:08:56.431Z,6.90
2022-11-27T02:11:50.056Z,6.45
2022-11-27T02:14:41.951Z,6.50
2022-11-27T02:17:21.817Z,6.45
2022-11-27T02:20:21.941Z,6.30
2022-11-27T02:23:25.597Z,6.32
2022-11-27T02:26:23.175Z,6.72
2022-11-27T02:29:12.193Z,6.88
2022-11-27T02:31:57.199Z,6.30
2022-11-27T02:34:55.247Z,6.38
2022-11-27T02:37:34.691Z,7.18
2022-11-27T02:40:20.158Z,7.20
2022-11-27T02:42:58.925Z,6.15
2022-11-27T02:45:37.204Z,7.65
2022-11-27T02:48:05.582Z,7.40
2022-11-27T02:50:34.459Z,6.22
2022-11-27T02:53:06.877Z,5.43
2022-11-27T02:55:35.909Z,7.63
2022-11-27T02:58:05.746Z,6.15
2022-11-27T03:00:34.305Z,6.88
2022-11-27T03:03:05.030Z,6.55
2022-11-27T03:05:36.576Z,5.88
2022-11-27T03:08:18.232Z,5.78
2022-11-27T03:11:02.438Z,6.25
2022-11-27T03:13:31.894Z,5.20
2022-11-27T03:16:19.898Z,4.80
2022-11-27T03:18:52.546Z,5.93
2022-11-27T03:21:39.656Z,4.90
2022-11-27T03:24:08.622Z,5.13
2022-11-27T03:26:36.425Z,5.00
2022-11-27T03:29:06.168Z,5.15
2022-11-27T03:31:33.190Z,5.10
2022-11-27T03:34:00.144Z,5.20
2022-11-27T03:36:26.837Z,5.50
2022-11-27T03:38:55.416Z,6.50
2022-11-27T03:41:22.084Z,6.20
2022-11-27T03:44:10.776Z,6.25
2022-11-27T03:46:52.652Z,6.85
2022-11-27T03:49:31.292Z,5.80
2022-11-27T03:52:20.115Z,6.03
2022-11-27T03:54:59.404Z,6.22
2022-11-27T03:57:34.598Z,6.80
2022-11-27T04:00:05.530Z,6.63
2022-11-27T04:02:45.794Z,6.80
2022-11-27T04:05:14.122Z,6.43
2022-11-27T04:07:41.617Z,6.32
2022-11-27T04:10:09.569Z,6.55
2022-11-27T04:12:36.445Z,5.95
2022-11-27T04:15:03.737Z,6.00
2022-11-27T04:17:30.397Z,5.78
2022-11-27T04:19:57.046Z,5.60
2022-11-27T04:22:24.130Z,5.20
2022-11-27T04:24:51.155Z,5.68
2022-11-27T04:27:18.191Z,5.70
2022-11-27T04:29:44.878Z,5.30
2022-11-27T04:32:11.575Z,5.72
2022-11-27T04:34:38.461Z,5.35
2022-11-27T04:37:05.316Z,5.18
2022-11-27T04:39:31.993Z,5.65
2022-11-27T04:41:58.670Z,4.72
2022-11-27T04:44:25.329Z,5.38
2022-11-27T04:46:52.092Z,5.40
2022-11-27T04:49:18.943Z,5.07
2022-11-27T04:51:45.837Z,5.35
2022-11-27T04:54:12.752Z,5.28
2022-11-27T04:56:39.721Z,4.80
2022-11-27T04:59:06.416Z,4.70
2022-11-27T05:01:33.371Z,5.25
2022-11-27T05:04:00.045Z,5.47
2022-11-27T05:06:27.121Z,5.40
2022-11-27T05:08:59.922Z,5.30
2022-11-27T05:11:26.947Z,5.65
2022-11-27T05:14:13.610Z,5.32
2022-11-27T05:16:50.668Z,6.13
2022-11-27T05:19:19.346Z,5.93
2022-11-27T05:21:47.354Z,5.25
2022-11-27T05:24:15.159Z,5.78
2022-11-27T05:26:43.034Z,5.45
2022-11-27T05:29:10.740Z,6.35
2022-11-27T05:31:38.217Z,5.90
2022-11-27T05:34:05.264Z,6.05
2022-11-27T05:36:32.941Z,5.65
2022-11-27T05:39:00.807Z,6.40
2022-11-27T05:41:27.988Z,6.50
2022-11-27T05:43:54.919Z,6.30
2022-11-27T05:46:22.963Z,5.07
2022-11-27T05:48:49.748Z,5.70
2022-11-27T05:51:17.354Z,5.95
2022-11-27T05:53:44.126Z,5.53
2022-11-27T05:56:13.588Z,6.35
2022-11-27T05:58:42.265Z,5.95
2022-11-27T06:01:09.992Z,6.25
2022-11-27T06:03:39.000Z,5.75
2022-11-27T06:06:11.365Z,6.20
2022-11-27T06:08:39.309Z,6.45
2022-11-27T06:11:07.820Z,5.93
2022-11-27T06:13:34.972Z,5.78
2022-11-27T06:16:11.207Z,5.60
2022-11-27T06:18:38.780Z,5.72
2022-11-27T06:21:10.294Z,6.20
2022-11-27T06:23:38.269Z,6.07
2022-11-27T06:26:33.545Z,5.85
2022-11-27T06:29:01.043Z,6.07
2022-11-27T06:31:31.034Z,6.25
2022-11-27T06:33:58.468Z,5.70
2022-11-27T06:36:28.697Z,6.32
2022-11-27T06:38:55.514Z,6.60
2022-11-27T06:41:28.028Z,7.05
2022-11-27T06:43:56.054Z,6.68
2022-11-27T06:46:23.380Z,7.43
2022-11-27T06:48:51.718Z,7.85
2022-11-27T06:51:23.368Z,18.20
2022-11-27T06:53:51.404Z,8.93
2022-11-27T06:56:20.648Z,7.35
2022-11-27T06:58:51.545Z,6.78
2022-11-27T07:01:18.564Z,7.18
2022-11-27T07:03:45.631Z,7.53
2022-11-27T07:06:15.696Z,7.57
2022-11-27T07:08:42.517Z,7.07
2022-11-27T07:11:15.687Z,6.93
2022-11-27T07:13:42.413Z,11.23
2022-11-27T07:16:11.076Z,7.80
2022-11-27T07:18:59.149Z,7.78
2022-11-27T07:21:26.365Z,6.90
2022-11-27T07:23:53.452Z,5.88
2022-11-27T07:26:22.244Z,6.13
2022-11-27T07:28:49.403Z,6.60
2022-11-27T07:31:19.843Z,6.60
2022-11-27T07:33:46.754Z,6.18
2022-11-27T07:36:28.453Z,7.10
2022-11-27T07:38:55.209Z,6.43
2022-11-27T07:41:21.953Z,6.38
2022-11-27T07:43:48.664Z,6.88
2022-11-27T07:46:18.102Z,8.00
2022-11-27T07:48:45.350Z,10.73
2022-11-27T07:51:14.928Z,6.55
2022-11-27T07:53:42.831Z,7.05
2022-11-27T07:56:12.180Z,6.82
2022-11-27T07:58:38.976Z,6.30
2022-11-27T08:01:10.515Z,6.60
2022-11-27T08:03:37.886Z,6.65
2022-11-27T08:06:05.748Z,6.68
2022-11-27T08:08:32.997Z,7.45
2022-11-27T08:10:59.802Z,7.00
2022-11-27T08:13:26.458Z,7.22
2022-11-27T08:15:53.221Z,6.93
2022-11-27T08:18:19.878Z,6.72
2022-11-27T08:20:46.670Z,6.60
2022-11-27T08:23:13.460Z,6.50
2022-11-27T08:25:40.121Z,6.25
2022-11-27T08:28:06.792Z,6.85
2022-11-27T08:30:33.439Z,6.60
2022-11-27T08:33:00.825Z,6.10
2022-11-27T08:35:28.013Z,8.25
2022-11-27T08:37:54.927Z,8.55
2022-11-27T08:40:21.767Z,7.57
2022-11-27T08:42:48.424Z,7.00
2022-11-27T08:45:15.254Z,8.15
2022-11-27T08:47:43.412Z,6.07
2022-11-27T08:50:10.504Z,7.25
2022-11-27T08:52:37.247Z,5.15
2022-11-27T08:55:04.786Z,5.00
2022-11-27T08:57:31.481Z,5.93
2022-11-27T08:59:58.152Z,5.47
2022-11-27T09:02:24.806Z,5.38
2022-11-27T09:04:51.570Z,5.43
2022-11-27T09:07:18.355Z,5.25
2022-11-27T09:09:45.066Z,4.18
2022-11-27T09:12:12.169Z,4.90
2022-11-27T09:14:39.431Z,4.78
2022-11-27T09:17:06.738Z,3.88
2022-11-27T09:19:33.387Z,3.70
2022-11-27T09:22:00.110Z,3.17
2022-11-27T09:24:26.916Z,3.65
2022-11-27T09:26:53.601Z,3.55
2022-11-27T09:29:20.415Z,3.70
2022-11-27T09:31:47.135Z,3.65
2022-11-27T09:34:14.826Z,3.70
2022-11-27T09:36:41.496Z,3.47
2022-11-27T09:39:08.205Z,3.55
2022-11-27T09:41:43.938Z,3.20
2022-11-27T09:44:42.952Z,3.40
2022-11-27T09:47:18.689Z,3.33
2022-11-27T09:49:59.041Z,2.85
2022-11-27T09:52:36.882Z,2.92
2022-11-27T09:55:15.669Z,3.20
2022-11-27T09:57:45.805Z,2.90
2022-11-27T10:00:18.814Z,2.90
2022-11-27T10:02:46.250Z,3.38
2022-11-27T10:05:19.262Z,4.85
2022-11-27T10:08:13.754Z,5.07
2022-11-27T10:10:55.929Z,4.50
2022-11-27T10:13:44.203Z,4.68
2022-11-27T10:16:42.909Z,4.90
2022-11-27T10:19:26.283Z,4.57
2022-11-27T10:22:01.687Z,4.80
2022-11-27T10:24:51.103Z,4.80
2022-11-27T10:27:23.412Z,5.03
2022-11-27T10:29:55.766Z,4.45
2022-11-27T10:32:54.016Z,5.10
2022-11-27T10:35:23.355Z,5.17
2022-11-27T10:38:09.657Z,7.20
2022-11-27T10:40:39.336Z,6.80
2022-11-27T10:43:23.712Z,6.30
2022-11-27T10:45:57.858Z,3.73
2022-11-27T10:48:25.170Z,4.10
2022-11-27T10:50:51.926Z,4.10
2022-11-27T10:53:33.742Z,3.97
2022-11-27T10:56:13.796Z,4.10
2022-11-27T10:58:47.255Z,3.90
2022-11-27T11:01:16.905Z,3.63
2022-11-27T11:03:43.709Z,3.50
2022-11-27T11:06:30.530Z,13.67
2022-11-27T11:09:06.219Z,4.17
2022-11-27T11:11:33.301Z,4.40
2022-11-27T11:14:00.039Z,3.77
2022-11-27T11:16:34.868Z,3.23
2022-11-27T11:19:02.968Z,4.00
2022-11-27T11:21:32.934Z,4.17
2022-11-27T11:24:14.135Z,5.20
2022-11-27T11:26:46.104Z,3.10
2022-11-27T11:29:40.730Z,3.93
2022-11-27T11:32:21.355Z,3.77
2022-11-27T11:35:01.142Z,3.73
2022-11-27T11:37:31.721Z,4.37
2022-11-27T11:40:04.732Z,3.87
2022-11-27T11:42:34.415Z,3.27
2022-11-27T11:45:11.251Z,3.53
2022-11-27T11:47:46.376Z,3.50
2022-11-27T11:50:14.828Z,5.60
2022-11-27T11:53:03.051Z,5.10
2022-11-27T11:56:02.549Z,7.00
2022-11-27T11:58:49.854Z,4.57
2022-11-27T12:01:46.994Z,4.53
2022-11-27T12:04:19.766Z,4.23
2022-11-27T12:06:49.965Z,4.90
2022-11-27T12:09:28.066Z,4.70
2022-11-27T12:12:01.512Z,5.10
2022-11-27T12:14:46.726Z,4.20
2022-11-27T12:17:31.468Z,5.03
2022-11-27T12:20:05.272Z,3.87
2022-11-27T12:22:40.077Z,4.13
2022-11-27T12:25:33.568Z,5.07
2022-11-27T12:28:34.474Z,4.20
2022-11-27T12:31:37.747Z,5.00
2022-11-27T12:34:31.740Z,4.20
2022-11-27T12:36:58.481Z,4.53
2022-11-27T12:39:26.998Z,4.67
2022-11-27T12:42:24.661Z,4.73
2022-11-27T12:45:20.711Z,5.40
2022-11-27T12:48:04.036Z,5.80
2022-11-27T12:50:43.655Z,5.03
2022-11-27T12:53:26.334Z,5.57
2022-11-27T12:56:32.151Z,6.50
2022-11-27T12:59:04.084Z,5.90
2022-11-27T13:01:42.730Z,6.33
2022-11-27T13:04:24.668Z,6.30
2022-11-27T13:07:13.385Z,5.70
2022-11-27T13:09:52.386Z,5.43
2022-11-27T13:12:32.661Z,5.30
2022-11-27T13:15:04.433Z,5.40
2022-11-27T13:17:39.193Z,5.80
2022-11-27T13:20:14.283Z,5.90
2022-11-27T13:22:42.415Z,5.80
2022-11-27T13:25:14.441Z,5.03
2022-11-27T13:27:45.380Z,5.80
2022-11-27T13:30:21.254Z,6.53
2022-11-27T13:32:57.779Z,9.10
2022-11-27T13:35:38.404Z,6.67
2022-11-27T13:38:25.191Z,6.10
2022-11-27T13:40:55.878Z,6.90
2022-11-27T13:43:28.990Z,6.20
2022-11-27T13:46:10.028Z,5.87
2022-11-27T13:48:42.340Z,5.10
2022-11-27T13:51:11.805Z,5.10
2022-11-27T13:53:42.835Z,5.40
2022-11-27T13:56:10.214Z,4.57
2022-11-27T13:58:39.410Z,5.00
2022-11-27T14:01:19.780Z,5.23
2022-11-27T14:03:47.070Z,5.03
2022-11-27T14:06:30.377Z,5.57
2022-11-27T14:09:03.427Z,5.40
2022-11-27T14:11:39.909Z,7.00
2022-11-27T14:14:19.503Z,6.67
2022-11-27T14:16:58.612Z,5.40
2022-11-27T14:19:34.627Z,5.27
2022-11-27T14:22:13.285Z,4.70
2022-11-27T14:24:43.899Z,5.03
2022-11-27T14:27:23.383Z,4.75
2022-11-27T14:29:51.305Z,4.93
2022-11-27T14:32:20.039Z,4.53
2022-11-27T14:34:48.659Z,5.40
2022-11-27T14:37:27.642Z,5.53
2022-11-27T14:39:54.712Z,5.50
2022-11-27T14:42:29.305Z,6.00
2022-11-27T14:45:01.920Z,6.22
2022-11-27T14:47:29.417Z,6.32
2022-11-27T14:49:57.045Z,6.18
2022-11-27T14:52:24.291Z,7.65
2022-11-27T14:54:51.773Z,7.45
2022-11-27T14:57:28.958Z,7.65
2022-11-27T15:00:15.769Z,8.68
2022-11-27T15:02:42.879Z,7.82
2022-11-27T15:05:22.732Z,8.23
2022-11-27T15:07:53.006Z,9.45
2022-11-27T15:10:33.882Z,9.50
2022-11-27T15:13:02.314Z,10.30
2022-11-27T15:15:39.074Z,10.60
2022-11-27T15:18:08.866Z,10.20
2022-11-27T15:20:43.756Z,10.07
2022-11-27T15:23:18.152Z,11.68
2022-11-27T15:25:48.744Z,11.77
2022-11-27T15:28:43.417Z,11.45
2022-11-27T15:31:31.450Z,11.25
2022-11-27T15:34:05.570Z,10.65
2022-11-27T15:36:44.135Z,11.57
2022-11-27T15:39:33.600Z,10.70
2022-11-27T15:42:02.186Z,10.00
2022-11-27T15:44:31.323Z,9.25
2022-11-27T15:47:00.841Z,9.63
2022-11-27T15:49:28.324Z,8.32
2022-11-27T15:51:56.041Z,8.80
2022-11-27T15:54:23.237Z,8.50
2022-11-27T15:56:49.966Z,8.63
2022-11-27T15:59:17.789Z,7.47
2022-11-27T16:01:44.576Z,7.47
2022-11-27T16:04:11.295Z,7.47
2022-11-27T16:06:38.303Z,7.22
2022-11-27T16:09:05.657Z,7.45
2022-11-27T16:11:32.992Z,7.18
2022-11-27T16:13:59.757Z,7.38
2022-11-27T16:16:27.172Z,7.70
2022-11-27T16:18:59.604Z,7.03
2022-11-27T16:21:29.714Z,9.80
2022-11-27T16:24:05.259Z,9.40
2022-11-27T16:26:32.360Z,9.48
2022-11-27T16:28:59.445Z,9.43
2022-11-27T16:31:26.967Z,8.38
2022-11-27T16:33:53.927Z,7.07
2022-11-27T16:36:21.601Z,6.72
2022-11-27T16:38:48.863Z,7.97
2022-11-27T16:41:17.824Z,7.50
2022-11-27T16:43:51.712Z,7.72
2022-11-27T16:46:25.888Z,6.55
2022-11-27T16:48:53.650Z,8.27
2022-11-27T16:51:22.735Z,8.05
2022-11-27T16:53:52.170Z,7.45
2022-11-27T16:56:21.279Z,8.13
2022-11-27T16:58:48.264Z,8.20
2022-11-27T17:01:18.290Z,8.13
2022-11-27T17:03:45.012Z,8.35
2022-11-27T17:06:14.909Z,8.30
2022-11-27T17:08:41.842Z,8.85
2022-11-27T17:11:10.570Z,9.77
2022-11-27T17:13:37.784Z,8.00
2022-11-27T17:16:06.681Z,8.60
2022-11-27T17:18:33.500Z,9.23
2022-11-27T17:21:05.548Z,9.20
2022-11-27T17:23:32.261Z,8.65
2022-11-27T17:25:59.006Z,8.90
2022-11-27T17:28:25.657Z,9.10
2022-11-27T17:30:52.382Z,10.32
2022-11-27T17:33:19.049Z,10.73
2022-11-27T17:35:45.701Z,10.02
2022-11-27T17:38:13.239Z,9.98
2022-11-27T17:40:39.953Z,9.50
2022-11-27T17:43:06.680Z,10.20
2022-11-27T17:45:33.382Z,9.52
2022-11-27T17:48:00.406Z,8.63
2022-11-27T17:50:27.172Z,9.23
2022-11-27T17:52:53.814Z,8.27
2022-11-27T17:55:20.481Z,9.25
2022-11-27T17:57:47.197Z,8.35
2022-11-27T18:00:14.253Z,8.80
2022-11-27T18:02:41.063Z,8.80
2022-11-27T18:05:08.197Z,8.85
2022-11-27T18:07:34.940Z,8.48
2022-11-27T18:10:01.833Z,9.27
2022-11-27T18:12:28.573Z,8.45
2022-11-27T18:15:00.967Z,9.63
2022-11-27T18:17:29.177Z,9.73
2022-11-27T18:19:58.890Z,9.40
2022-11-27T18:22:25.612Z,9.75
2022-11-27T18:24:52.258Z,9.65
2022-11-27T18:27:19.024Z,9.68
2022-11-27T18:29:46.413Z,10.60
2022-11-27T18:32:14.927Z,9.80
2022-11-27T18:34:42.446Z,10.00
2022-11-27T18:37:09.437Z,10.68
2022-11-27T18:39:37.471Z,10.52
2022-11-27T18:42:05.446Z,9.93
2022-11-27T18:44:34.224Z,9.45
2022-11-27T18:47:06.644Z,8.60
2022-11-27T18:49:33.307Z,9.35
2022-11-27T18:51:59.964Z,9.02
2022-11-27T18:54:26.632Z,8.93
2022-11-27T18:56:53.469Z,9.30
2022-11-27T18:59:20.126Z,9.07
2022-11-27T19:01:46.926Z,8.93
2022-11-27T19:04:15.090Z,9.50
2022-11-27T19:06:42.846Z,9.93
2022-11-27T19:09:11.137Z,11.25
2022-11-27T19:11:38.502Z,12.02
2022-11-27T19:14:05.779Z,10.07
2022-11-27T19:16:35.595Z,10.13
2022-11-27T19:19:04.529Z,9.07
2022-11-27T19:21:33.243Z,9.35
2022-11-27T19:24:01.397Z,9.30
2022-11-27T19:26:31.449Z,9.30
2022-11-27T19:29:02.487Z,10.30
2022-11-27T19:31:32.008Z,10.55
2022-11-27T19:34:01.636Z,11.80
2022-11-27T19:36:30.550Z,10.27
2022-11-27T19:39:02.269Z,11.98
2022-11-27T19:41:29.019Z,18.20
2022-11-27T19:43:55.746Z,10.98
2022-11-27T19:46:28.086Z,13.75
2022-11-27T19:48:56.888Z,9.50
2022-11-27T19:51:24.702Z,15.45
2022-11-27T19:53:51.529Z,14.27
2022-11-27T19:56:18.384Z,10.25
2022-11-27T19:58:45.166Z,10.70
2022-11-27T20:01:14.089Z,9.23
2022-11-27T20:03:41.422Z,9.32
2022-11-27T20:06:16.432Z,10.30
2022-11-27T20:08:44.933Z,10.27
2022-11-27T20:11:14.438Z,10.35
2022-11-27T20:13:41.175Z,10.32
2022-11-27T20:16:16.722Z,10.63
2022-11-27T20:18:44.308Z,10.82
2022-11-27T20:21:14.318Z,9.40
2022-11-27T20:23:41.946Z,10.60
2022-11-27T20:26:11.253Z,10.85
2022-11-27T20:28:41.140Z,10.35
2022-11-27T20:31:13.365Z,11.32
2022-11-27T20:33:40.253Z,11.80
2022-11-27T20:36:18.369Z,11.43
2022-11-27T20:38:45.305Z,12.23
2022-11-27T20:41:14.760Z,11.98
2022-11-27T20:43:42.993Z,12.10
2022-11-27T20:46:12.424Z,11.40
2022-11-27T20:48:39.425Z,11.82
2022-11-27T20:51:16.117Z,11.55
2022-11-27T20:53:44.142Z,12.13
2022-11-27T20:56:12.793Z,11.23
2022-11-27T20:58:40.889Z,12.07
2022-11-27T21:01:41.601Z,11.85
2022-11-27T21:04:16.865Z,11.13
2022-11-27T21:06:44.363Z,10.80
2022-11-27T21:09:12.152Z,10.20
2022-11-27T21:11:38.896Z,11.77
2022-11-27T21:14:08.560Z,11.32
2022-11-27T21:16:39.309Z,11.35
2022-11-27T21:19:08.329Z,11.20
2022-11-27T21:21:35.322Z,10.43
2022-11-27T21:24:02.295Z,10.85
2022-11-27T21:26:29.329Z,11.50
2022-11-27T21:28:56.055Z,11.77
2022-11-27T21:31:26.021Z,11.05
2022-11-27T21:33:55.640Z,11.30
2022-11-27T21:36:25.337Z,11.40
2022-11-27T21:38:52.345Z,11.55
2022-11-27T21:41:19.952Z,10.20
2022-11-27T21:43:48.374Z,9.90
2022-11-27T21:46:19.231Z,12.45
2022-11-27T21:48:50.281Z,11.35
2022-11-27T21:51:20.852Z,10.95
2022-11-27T21:53:49.510Z,11.45
2022-11-27T21:56:18.495Z,10.85
2022-11-27T21:58:45.772Z,10.18
2022-11-27T22:01:15.722Z,11.98
2022-11-27T22:03:43.132Z,10.90
2022-11-27T22:06:12.780Z,9.88
2022-11-27T22:08:41.167Z,11.88
2022-11-27T22:11:16.481Z,11.35
2022-11-27T22:13:43.760Z,11.50
2022-11-27T22:16:14.023Z,11.88
2022-11-27T22:18:41.163Z,11.75
2022-11-27T22:21:09.392Z,11.55
2022-11-27T22:23:36.329Z,11.18
2022-11-27T22:26:05.136Z,10.85
2022-11-27T22:28:31.998Z,12.43
2022-11-27T22:30:58.710Z,11.10
2022-11-27T22:33:25.732Z,11.60
2022-11-27T22:35:52.553Z,11.20
2022-11-27T22:38:19.830Z,11.38
2022-11-27T22:40:46.705Z,11.07
2022-11-27T22:43:13.356Z,11.80
2022-11-27T22:45:41.520Z,11.88
2022-11-27T22:48:08.324Z,11.82
2022-11-27T22:50:34.967Z,10.75
2022-11-27T22:53:01.614Z,11.02
2022-11-27T22:55:28.379Z,10.55
2022-11-27T22:57:55.168Z,10.73
2022-11-27T23:00:23.222Z,11.52
2022-11-27T23:02:49.903Z,10.23
2022-11-27T23:05:16.640Z,10.75
2022-11-27T23:07:43.369Z,11.32
2022-11-27T23:10:10.608Z,11.90
2022-11-27T23:12:37.366Z,10.93
2022-11-27T23:15:04.844Z,11.80
2022-11-27T23:17:31.509Z,10.85
2022-11-27T23:19:58.133Z,10.10
2022-11-27T23:22:24.793Z,12.10
2022-11-27T23:24:52.920Z,11.00
2022-11-27T23:27:20.494Z,10.88
2022-11-27T23:29:47.218Z,11.48
2022-11-27T23:32:13.945Z,12.25
2022-11-27T23:34:40.986Z,11.77
2022-11-27T23:37:07.904Z,12.57
2022-11-27T23:39:34.672Z,12.68
2022-11-27T23:42:01.334Z,11.98
2022-11-27T23:44:28.157Z,11.82
2022-11-27T23:46:54.819Z,13.25
2022-11-27T23:49:21.464Z,12.63
2022-11-27T23:51:48.273Z,12.00
2022-11-27T23:54:15.023Z,12.43
2022-11-27T23:56:43.048Z,12.63
2022-11-27T23:59:10.028Z,13.05
